createdAt,value
2019-01-19T00:01:40.774Z,1.30
2019-01-19T00:04:19.207Z,1.40
2019-01-19T00:07:06.904Z,1.40
2019-01-19T00:09:49.755Z,1.40
2019-01-19T00:12:33.922Z,1.40
2019-01-19T00:15:09.751Z,1.40
2019-01-19T00:17:56.858Z,1.40
2019-01-19T00:20:43.957Z,1.40
2019-01-19T00:23:40.365Z,1.40
2019-01-19T00:26:19.675Z,1.30
2019-01-19T00:29:06.756Z,1.30
2019-01-19T00:31:37.747Z,1.30
2019-01-19T00:34:24.030Z,1.30
2019-01-19T00:37:14.198Z,1.30
2019-01-19T00:40:13.383Z,1.30
2019-01-19T00:43:06.667Z,1.30
2019-01-19T00:45:59.702Z,1.30
2019-01-19T00:48:46.838Z,1.30
2019-01-19T00:51:20.663Z,1.30
2019-01-19T00:53:52.227Z,1.20
2019-01-19T00:56:54.479Z,1.20
2019-01-19T00:59:24.395Z,1.20
2019-01-19T01:02:00.622Z,1.20
2019-01-19T01:04:39.710Z,1.20
2019-01-19T01:07:17.531Z,1.10
2019-01-19T01:10:10.423Z,1.10
2019-01-19T01:13:10.046Z,1.00
2019-01-19T01:16:00.223Z,1.10
2019-01-19T01:18:46.382Z,1.20
2019-01-19T01:21:33.533Z,1.20
2019-01-19T01:24:23.172Z,1.20
2019-01-19T01:27:11.134Z,1.20
2019-01-19T01:29:58.113Z,1.20
2019-01-19T01:32:34.800Z,1.30
2019-01-19T01:35:20.690Z,1.20
2019-01-19T01:37:57.891Z,1.20
2019-01-19T01:40:45.042Z,1.30
2019-01-19T01:43:18.997Z,1.30
2019-01-19T01:46:05.202Z,1.30
2019-01-19T01:48:55.385Z,1.30
2019-01-19T01:51:28.350Z,1.30
2019-01-19T01:54:02.899Z,1.30
2019-01-19T01:56:30.707Z,1.30
2019-01-19T01:59:20.632Z,1.30
2019-01-19T02:02:01.476Z,1.30
2019-01-19T02:05:01.066Z,1.40
2019-01-19T02:07:42.420Z,1.30
2019-01-19T02:10:35.323Z,1.40
2019-01-19T02:13:25.408Z,1.40
2019-01-19T02:16:10.255Z,1.40
2019-01-19T02:18:44.027Z,1.40
2019-01-19T02:21:34.068Z,1.40
2019-01-19T02:24:21.221Z,1.40
2019-01-19T02:26:54.218Z,1.30
2019-01-19T02:29:35.917Z,1.30
2019-01-19T02:32:21.727Z,1.20
2019-01-19T02:34:57.451Z,1.20
2019-01-19T02:37:43.450Z,1.30
2019-01-19T02:40:14.502Z,1.30
2019-01-19T02:42:57.628Z,1.20
2019-01-19T02:45:36.153Z,1.10
2019-01-19T02:48:22.258Z,1.10
2019-01-19T02:50:53.267Z,1.00
2019-01-19T02:53:28.455Z,1.00
2019-01-19T02:56:21.428Z,1.00
2019-01-19T02:59:23.882Z,1.00
2019-01-19T03:02:12.994Z,1.00
2019-01-19T03:04:43.353Z,1.00
2019-01-19T03:07:19.312Z,1.00
2019-01-19T03:10:04.972Z,1.00
2019-01-19T03:12:55.109Z,1.00
2019-01-19T03:15:35.730Z,1.00
2019-01-19T03:18:35.127Z,1.00
2019-01-19T03:21:08.522Z,0.90
2019-01-19T03:23:40.010Z,0.90
2019-01-19T03:26:17.368Z,0.90
2019-01-19T03:29:03.404Z,0.80
2019-01-19T03:31:59.966Z,0.80
2019-01-19T03:34:35.466Z,0.80
2019-01-19T03:37:21.659Z,0.70
2019-01-19T03:40:07.973Z,0.70
2019-01-19T03:42:58.093Z,0.70
2019-01-19T03:45:46.070Z,0.60
2019-01-19T03:48:18.549Z,0.60
2019-01-19T03:51:08.321Z,0.60
2019-01-19T03:53:54.594Z,0.60
2019-01-19T03:56:45.219Z,0.50
2019-01-19T03:59:34.798Z,0.50
2019-01-19T04:02:10.766Z,0.40
2019-01-19T04:04:44.259Z,0.30
2019-01-19T04:07:31.341Z,0.40
2019-01-19T04:10:21.548Z,0.40
2019-01-19T04:13:08.652Z,0.40
2019-01-19T04:15:54.495Z,0.50
2019-01-19T04:18:44.522Z,0.60
2019-01-19T04:21:17.245Z,0.50
2019-01-19T04:23:47.445Z,0.50
2019-01-19T04:26:21.222Z,0.50
2019-01-19T04:28:49.351Z,0.60
2019-01-19T04:31:17.239Z,0.60
2019-01-19T04:33:45.303Z,0.70
2019-01-19T04:36:21.192Z,0.70
2019-01-19T04:38:42.862Z,0.70
2019-01-19T04:41:10.675Z,0.70
2019-01-19T04:43:39.461Z,0.70
2019-01-19T04:46:07.337Z,0.70
2019-01-19T04:48:35.491Z,0.80
2019-01-19T04:51:03.527Z,0.90
2019-01-19T04:53:31.355Z,1.00
2019-01-19T04:55:59.482Z,1.10
2019-01-19T04:58:27.260Z,1.20
2019-01-19T05:00:55.153Z,1.20
2019-01-19T05:03:23.018Z,1.10
2019-01-19T05:05:50.897Z,1.10
2019-01-19T05:08:18.730Z,1.10
2019-01-19T05:10:46.626Z,1.00
2019-01-19T05:13:14.468Z,1.10
2019-01-19T05:15:42.352Z,1.00
2019-01-19T05:18:10.306Z,1.00
2019-01-19T05:20:38.098Z,0.90
2019-01-19T05:23:06.228Z,0.80
2019-01-19T05:25:34.204Z,0.70
2019-01-19T05:28:02.028Z,0.50
2019-01-19T05:30:29.862Z,0.50
2019-01-19T05:32:57.663Z,0.30
2019-01-19T05:35:25.503Z,0.20
2019-01-19T05:37:53.280Z,0.20
2019-01-19T05:40:21.115Z,0.00
2019-01-19T05:42:49.048Z,0.00
2019-01-19T05:45:17.127Z,-0.10
2019-01-19T05:47:44.942Z,-0.20
2019-01-19T05:50:17.177Z,-0.20
2019-01-19T05:52:44.987Z,-0.20
2019-01-19T05:55:12.901Z,-0.20
2019-01-19T05:57:40.708Z,-0.20
2019-01-19T06:00:13.373Z,-0.20
2019-01-19T06:02:41.160Z,-0.20
2019-01-19T06:05:09.251Z,-0.20
2019-01-19T06:07:37.118Z,-0.10
2019-01-19T06:10:05.629Z,0.00
2019-01-19T06:12:33.457Z,0.10
2019-01-19T06:15:01.284Z,0.20
2019-01-19T06:17:29.357Z,0.30
2019-01-19T06:19:57.200Z,0.50
2019-01-19T06:22:25.069Z,0.60
2019-01-19T06:24:53.135Z,0.70
2019-01-19T06:27:20.935Z,0.70
2019-01-19T06:29:48.816Z,0.70
2019-01-19T06:32:16.622Z,0.80
2019-01-19T06:34:44.437Z,0.90
2019-01-19T06:37:12.334Z,0.90
2019-01-19T06:39:40.174Z,0.90
2019-01-19T06:42:08.533Z,1.00
2019-01-19T06:44:36.334Z,1.00
2019-01-19T06:47:04.281Z,1.00
2019-01-19T06:49:32.154Z,1.00
2019-01-19T06:51:59.946Z,1.10
2019-01-19T06:54:28.317Z,1.10
2019-01-19T06:56:56.120Z,1.10
2019-01-19T06:59:23.888Z,1.20
2019-01-19T07:01:51.718Z,1.30
2019-01-19T07:04:19.499Z,1.40
2019-01-19T07:06:47.421Z,1.40
2019-01-19T07:09:15.308Z,1.40
2019-01-19T07:11:43.196Z,1.40
2019-01-19T07:14:10.957Z,1.40
2019-01-19T07:16:38.862Z,1.40
2019-01-19T07:19:06.674Z,1.50
2019-01-19T07:21:34.559Z,1.50
2019-01-19T07:24:02.393Z,1.50
2019-01-19T07:26:30.309Z,1.40
2019-01-19T07:28:58.152Z,1.30
2019-01-19T07:31:26.305Z,1.20
2019-01-19T07:33:54.342Z,1.20
2019-01-19T07:36:22.221Z,1.20
2019-01-19T07:38:50.037Z,1.10
2019-01-19T07:41:17.879Z,1.10
2019-01-19T07:43:45.851Z,1.00
2019-01-19T07:46:13.907Z,1.00
2019-01-19T07:48:41.970Z,1.00
2019-01-19T07:51:11.441Z,0.90
2019-01-19T07:53:39.532Z,0.80
2019-01-19T07:56:07.326Z,0.70
2019-01-19T07:58:35.227Z,0.70
2019-01-19T08:01:03.154Z,0.60
2019-01-19T08:03:31.020Z,0.50
2019-01-19T08:05:58.801Z,0.50
2019-01-19T08:08:27.019Z,0.50
2019-01-19T08:10:54.941Z,0.50
2019-01-19T08:13:22.829Z,0.50
2019-01-19T08:15:50.687Z,0.40
2019-01-19T08:18:18.924Z,0.40
2019-01-19T08:20:46.781Z,0.50
2019-01-19T08:23:14.683Z,0.50
2019-01-19T08:25:42.559Z,0.40
2019-01-19T08:28:10.343Z,0.40
2019-01-19T08:30:38.193Z,0.40
2019-01-19T08:33:06.153Z,0.40
2019-01-19T08:35:34.603Z,0.40
2019-01-19T08:38:02.412Z,0.50
2019-01-19T08:40:34.126Z,0.50
2019-01-19T08:43:30.324Z,0.50
2019-01-19T08:45:58.199Z,0.60
2019-01-19T08:48:26.061Z,0.60
2019-01-19T08:50:54.161Z,0.70
2019-01-19T08:53:21.964Z,0.80
2019-01-19T08:55:49.860Z,0.90
2019-01-19T08:58:18.194Z,1.00
2019-01-19T09:00:45.981Z,1.20
2019-01-19T09:03:13.866Z,1.30
2019-01-19T09:05:41.719Z,1.40
2019-01-19T09:08:09.686Z,1.50
2019-01-19T09:10:37.562Z,1.60
2019-01-19T09:13:05.466Z,1.60
2019-01-19T09:15:33.298Z,1.80
2019-01-19T09:18:01.183Z,1.80
2019-01-19T09:20:29.035Z,1.90
2019-01-19T09:23:16.074Z,2.00
2019-01-19T09:25:43.853Z,2.00
2019-01-19T09:28:11.646Z,2.10
2019-01-19T09:30:39.438Z,2.20
2019-01-19T09:33:07.258Z,2.20
2019-01-19T09:35:35.082Z,2.20
2019-01-19T09:38:02.953Z,2.20
2019-01-19T09:40:30.717Z,2.30
2019-01-19T09:42:58.534Z,2.30
2019-01-19T09:45:26.615Z,2.40
2019-01-19T09:47:54.390Z,2.40
2019-01-19T09:50:22.282Z,2.50
2019-01-19T09:52:50.073Z,2.60
2019-01-19T09:55:18.206Z,2.70
2019-01-19T09:57:46.150Z,2.80
2019-01-19T10:00:15.061Z,2.80
2019-01-19T10:02:42.917Z,2.80
2019-01-19T10:05:12.515Z,2.80
2019-01-19T10:07:40.313Z,2.80
2019-01-19T10:10:08.974Z,2.90
2019-01-19T10:12:37.066Z,2.90
2019-01-19T10:15:05.951Z,2.90
2019-01-19T10:17:33.744Z,2.90
2019-01-19T10:20:01.634Z,2.90
2019-01-19T10:22:29.405Z,2.90
2019-01-19T10:24:57.207Z,2.90
2019-01-19T10:27:24.986Z,2.90
2019-01-19T10:29:52.896Z,3.00
2019-01-19T10:32:20.806Z,3.00
2019-01-19T10:34:48.640Z,3.00
2019-01-19T10:37:16.461Z,3.10
2019-01-19T10:39:44.346Z,3.20
2019-01-19T10:42:12.202Z,3.20
2019-01-19T10:44:40.085Z,3.10
2019-01-19T10:47:07.956Z,3.00
2019-01-19T10:49:35.751Z,3.00
2019-01-19T10:52:03.717Z,3.10
2019-01-19T10:54:31.544Z,3.10
2019-01-19T10:56:59.318Z,3.00
2019-01-19T10:59:27.109Z,3.10
2019-01-19T11:01:54.934Z,3.20
2019-01-19T11:04:22.797Z,3.20
2019-01-19T11:06:50.785Z,3.30
2019-01-19T11:09:18.647Z,3.30
2019-01-19T11:11:46.428Z,3.30
2019-01-19T11:14:14.227Z,3.30
2019-01-19T11:16:41.998Z,3.40
2019-01-19T11:19:09.765Z,3.50
2019-01-19T11:24:05.010Z,3.50
2019-01-19T11:26:32.838Z,3.50
2019-01-19T11:29:00.598Z,3.50
2019-01-19T11:31:28.413Z,3.40
2019-01-19T11:33:56.193Z,3.40
2019-01-19T11:36:24.010Z,3.40
2019-01-19T11:38:51.811Z,3.50
2019-01-19T11:43:47.409Z,3.70
2019-01-19T11:46:15.253Z,3.70
2019-01-19T11:48:43.039Z,3.60
2019-01-19T11:51:10.908Z,3.60
2019-01-19T11:53:38.686Z,3.40
2019-01-19T11:56:12.160Z,3.40
2019-01-19T11:58:35.992Z,3.40
2019-01-19T12:01:03.969Z,3.40
2019-01-19T12:03:31.753Z,3.50
2019-01-19T12:06:00.165Z,3.60
2019-01-19T12:08:27.961Z,3.60
2019-01-19T12:10:55.749Z,3.70
2019-01-19T12:13:23.541Z,3.80
2019-01-19T12:15:51.379Z,3.80
2019-01-19T12:18:19.239Z,3.70
2019-01-19T12:20:48.099Z,3.70
2019-01-19T12:23:15.960Z,3.70
2019-01-19T12:25:43.825Z,3.80
2019-01-19T12:28:11.617Z,3.80
2019-01-19T12:30:39.427Z,3.90
2019-01-19T12:33:07.205Z,4.00
2019-01-19T12:35:35.070Z,4.00
2019-01-19T12:38:02.877Z,4.10
2019-01-19T12:40:30.893Z,4.20
2019-01-19T12:45:28.333Z,4.30
2019-01-19T12:50:24.033Z,4.60
2019-01-19T12:52:53.151Z,4.70
2019-01-19T12:55:21.184Z,4.80
2019-01-19T12:57:48.981Z,4.80
2019-01-19T13:00:17.838Z,4.70
2019-01-19T13:02:45.665Z,4.60
2019-01-19T13:05:17.869Z,4.60
2019-01-19T13:07:46.297Z,4.60
2019-01-19T13:10:23.438Z,4.50
2019-01-19T13:12:59.496Z,4.40
2019-01-19T13:15:32.161Z,4.20
2019-01-19T13:18:16.745Z,4.10
2019-01-19T13:21:03.810Z,4.10
2019-01-19T13:24:09.063Z,4.10
2019-01-19T13:26:42.621Z,4.00
2019-01-19T13:29:22.755Z,4.00
2019-01-19T13:31:55.423Z,3.90
2019-01-19T13:34:35.311Z,3.90
2019-01-19T13:37:21.249Z,3.80
2019-01-19T13:40:03.441Z,3.80
2019-01-19T13:42:53.385Z,3.70
2019-01-19T13:45:25.482Z,3.60
2019-01-19T13:48:09.357Z,3.70
2019-01-19T13:50:39.523Z,3.70
2019-01-19T13:53:13.501Z,3.70
2019-01-19T13:55:52.557Z,3.70
2019-01-19T13:58:31.261Z,3.70
2019-01-19T14:01:17.245Z,3.70
2019-01-19T14:04:06.473Z,3.70
2019-01-19T14:06:52.178Z,3.70
2019-01-19T14:09:24.476Z,3.70
2019-01-19T14:12:20.683Z,3.60
2019-01-19T14:15:22.989Z,3.60
2019-01-19T14:17:55.039Z,3.60
2019-01-19T14:20:41.603Z,3.60
2019-01-19T14:23:44.512Z,3.60
2019-01-19T14:26:15.517Z,3.60
2019-01-19T14:29:01.306Z,3.60
2019-01-19T14:31:51.004Z,3.60
2019-01-19T14:34:37.440Z,3.60
2019-01-19T14:37:23.790Z,3.60
2019-01-19T14:40:12.717Z,3.50
2019-01-19T14:42:59.828Z,3.50
2019-01-19T14:45:47.197Z,3.50
2019-01-19T14:48:34.288Z,3.50
2019-01-19T14:51:16.107Z,3.50
2019-01-19T14:53:52.113Z,3.50
2019-01-19T14:56:26.073Z,3.50
2019-01-19T14:59:13.133Z,3.40
2019-01-19T15:02:03.550Z,3.50
2019-01-19T15:04:36.222Z,3.50
2019-01-19T15:07:41.937Z,3.40
2019-01-19T15:10:16.697Z,3.40
2019-01-19T15:12:55.469Z,3.30
2019-01-19T15:15:40.085Z,3.20
2019-01-19T15:18:30.709Z,3.20
2019-01-19T15:21:06.482Z,3.10
2019-01-19T15:23:56.851Z,3.10
2019-01-19T15:26:43.312Z,3.10
2019-01-19T15:29:33.419Z,3.10
2019-01-19T15:32:29.611Z,3.10
2019-01-19T15:35:25.562Z,3.00
2019-01-19T15:38:03.631Z,3.00
2019-01-19T15:40:37.001Z,2.90
2019-01-19T15:43:11.557Z,2.90
2019-01-19T15:45:53.601Z,2.80
2019-01-19T15:48:53.019Z,2.70
2019-01-19T15:51:49.391Z,2.70
2019-01-19T15:54:35.487Z,2.70
2019-01-19T15:57:22.607Z,2.60
2019-01-19T16:00:08.685Z,2.60
2019-01-19T16:02:44.138Z,2.60
2019-01-19T16:05:31.297Z,2.60
2019-01-19T16:08:17.413Z,2.50
2019-01-19T16:11:06.902Z,2.50
2019-01-19T16:13:56.533Z,2.50
2019-01-19T16:16:52.585Z,2.40
2019-01-19T16:19:27.769Z,2.40
2019-01-19T16:22:18.109Z,2.30
2019-01-19T16:25:05.173Z,2.30
2019-01-19T16:27:49.578Z,2.20
2019-01-19T16:30:21.489Z,2.20
2019-01-19T16:32:54.947Z,2.10
2019-01-19T16:35:41.275Z,2.00
2019-01-19T16:38:13.186Z,2.00
2019-01-19T16:40:45.533Z,1.90
2019-01-19T16:43:18.634Z,1.80
2019-01-19T16:46:08.614Z,1.70
2019-01-19T16:48:43.090Z,1.60
2019-01-19T16:51:45.447Z,1.60
2019-01-19T16:54:26.991Z,1.50
2019-01-19T16:57:32.570Z,1.50
2019-01-19T17:00:19.778Z,1.40
2019-01-19T17:02:53.593Z,1.30
2019-01-19T17:05:24.297Z,1.30
2019-01-19T17:08:00.150Z,1.30
2019-01-19T17:10:35.517Z,1.20
2019-01-19T17:15:36.763Z,1.10
2019-01-19T17:18:29.987Z,1.00
2019-01-19T17:21:19.957Z,1.00
2019-01-19T17:24:01.420Z,1.00
2019-01-19T17:26:36.015Z,1.00
2019-01-19T17:29:14.250Z,1.00
2019-01-19T17:31:54.681Z,1.00
2019-01-19T17:34:41.225Z,0.90
2019-01-19T17:37:14.492Z,0.90
2019-01-19T17:40:08.043Z,0.90
2019-01-19T17:42:50.450Z,0.80
2019-01-19T17:45:52.905Z,0.80
2019-01-19T17:48:40.003Z,0.80
2019-01-19T17:51:15.119Z,0.70
2019-01-19T17:53:47.710Z,0.70
2019-01-19T17:56:30.685Z,0.60
2019-01-19T17:59:23.926Z,0.50
2019-01-19T18:02:10.980Z,0.40
2019-01-19T18:04:48.920Z,0.30
2019-01-19T18:07:26.594Z,0.30
2019-01-19T18:10:10.241Z,0.20
2019-01-19T18:12:48.929Z,0.10
2019-01-19T18:15:34.989Z,0.20
2019-01-19T18:18:31.074Z,0.20
2019-01-19T18:21:21.002Z,0.20
2019-01-19T18:24:06.937Z,0.20
2019-01-19T18:26:38.380Z,0.10
2019-01-19T18:29:24.216Z,0.20
2019-01-19T18:32:02.194Z,0.10
2019-01-19T18:34:55.065Z,0.00
2019-01-19T18:37:27.394Z,-0.10
2019-01-19T18:40:06.265Z,-0.10
2019-01-19T18:42:53.311Z,-0.20
2019-01-19T18:45:27.602Z,-0.20
2019-01-19T18:48:17.735Z,-0.20
2019-01-19T18:51:08.087Z,-0.30
2019-01-19T18:53:42.423Z,-0.40
2019-01-19T18:56:35.544Z,-0.40
2019-01-19T18:59:06.497Z,-0.40
2019-01-19T19:01:54.681Z,-0.50
2019-01-19T19:04:40.727Z,-0.50
2019-01-19T19:07:11.873Z,-0.50
2019-01-19T19:09:43.818Z,-0.50
2019-01-19T19:12:27.455Z,-0.40
2019-01-19T19:15:14.215Z,-0.50
2019-01-19T19:18:00.053Z,-0.60
2019-01-19T19:20:48.838Z,-0.60
2019-01-19T19:23:23.000Z,-0.70
2019-01-19T19:26:04.148Z,-0.70
2019-01-19T19:29:00.321Z,-0.70
2019-01-19T19:31:37.744Z,-0.80
2019-01-19T19:34:37.053Z,-0.80
2019-01-19T19:37:27.773Z,-0.90
2019-01-19T19:40:09.969Z,-0.90
2019-01-19T19:42:47.669Z,-1.00
2019-01-19T19:45:46.765Z,-1.10
2019-01-19T19:48:30.825Z,-1.10
2019-01-19T19:51:36.429Z,-1.10
2019-01-19T19:54:04.270Z,-1.10
2019-01-19T19:56:31.506Z,-1.10
2019-01-19T19:58:59.624Z,-1.20
2019-01-19T20:01:27.490Z,-1.20
2019-01-19T20:03:55.269Z,-1.10
2019-01-19T20:06:23.082Z,-1.20
2019-01-19T20:08:50.853Z,-1.10
2019-01-19T20:11:18.625Z,-1.10
2019-01-19T20:13:46.708Z,-1.10
2019-01-19T20:16:14.484Z,-1.10
2019-01-19T20:18:42.308Z,-1.10
2019-01-19T20:21:10.126Z,-1.10
2019-01-19T20:23:37.943Z,-1.10
2019-01-19T20:26:05.743Z,-1.10
2019-01-19T20:28:33.937Z,-1.10
2019-01-19T20:31:01.796Z,-1.10
2019-01-19T20:33:29.614Z,-1.20
2019-01-19T20:35:57.381Z,-1.10
2019-01-19T20:38:25.277Z,-1.10
2019-01-19T20:40:53.109Z,-1.10
2019-01-19T20:43:21.774Z,-1.10
2019-01-19T20:45:49.550Z,-1.10
2019-01-19T20:48:17.621Z,-1.10
2019-01-19T20:50:45.398Z,-1.10
2019-01-19T20:53:13.293Z,-1.20
2019-01-19T20:55:41.077Z,-1.20
2019-01-19T20:58:08.898Z,-1.30
2019-01-19T21:00:36.798Z,-1.30
2019-01-19T21:03:04.646Z,-1.30
2019-01-19T21:05:32.530Z,-1.40
2019-01-19T21:08:00.407Z,-1.30
2019-01-19T21:10:32.021Z,-1.30
2019-01-19T21:12:57.869Z,-1.30
2019-01-19T21:15:25.702Z,-1.20
2019-01-19T21:17:55.816Z,-1.20
2019-01-19T21:20:23.191Z,-1.20
2019-01-19T21:22:51.096Z,-1.20
2019-01-19T21:25:18.989Z,-1.30
2019-01-19T21:27:46.834Z,-1.30
2019-01-19T21:30:14.935Z,-1.40
2019-01-19T21:32:42.757Z,-1.40
2019-01-19T21:35:10.606Z,-1.50
2019-01-19T21:37:38.518Z,-1.50
2019-01-19T21:40:07.369Z,-1.60
2019-01-19T21:42:35.232Z,-1.60
2019-01-19T21:45:03.389Z,-1.70
2019-01-19T21:47:31.213Z,-1.70
2019-01-19T21:49:58.987Z,-1.70
2019-01-19T21:52:26.817Z,-1.70
2019-01-19T21:54:54.689Z,-1.70
2019-01-19T21:57:22.574Z,-1.80
2019-01-19T21:59:50.370Z,-1.70
2019-01-19T22:02:18.200Z,-1.70
2019-01-19T22:04:47.050Z,-1.70
2019-01-19T22:07:14.917Z,-1.70
2019-01-19T22:09:42.754Z,-1.80
2019-01-19T22:12:10.563Z,-1.70
2019-01-19T22:14:38.402Z,-1.70
2019-01-19T22:17:06.448Z,-1.80
2019-01-19T22:19:34.335Z,-1.80
2019-01-19T22:22:02.102Z,-1.90
2019-01-19T22:24:29.938Z,-1.90
2019-01-19T22:26:57.939Z,-1.90
2019-01-19T22:29:25.857Z,-2.00
2019-01-19T22:31:53.685Z,-2.00
2019-01-19T22:34:21.625Z,-2.00
2019-01-19T22:36:49.390Z,-2.00
2019-01-19T22:39:17.217Z,-2.00
2019-01-19T22:41:45.001Z,-1.90
2019-01-19T22:44:13.225Z,-1.90
2019-01-19T22:46:41.011Z,-2.00
2019-01-19T22:49:19.565Z,-2.00
2019-01-19T22:51:47.429Z,-1.90
2019-01-19T22:54:15.237Z,-1.90
2019-01-19T22:56:43.292Z,-1.90
2019-01-19T22:59:11.123Z,-1.90
2019-01-19T23:01:49.985Z,-1.90
2019-01-19T23:04:17.777Z,-1.90
2019-01-19T23:06:45.586Z,-2.00
2019-01-19T23:09:13.519Z,-1.90
2019-01-19T23:11:41.369Z,-1.90
2019-01-19T23:14:11.323Z,-2.00
2019-01-19T23:16:39.506Z,-2.00
2019-01-19T23:19:07.317Z,-2.00
2019-01-19T23:21:35.110Z,-1.90
2019-01-19T23:24:03.230Z,-1.90
2019-01-19T23:26:31.215Z,-2.00
2019-01-19T23:28:59.045Z,-2.10
2019-01-19T23:31:26.887Z,-2.10
2019-01-19T23:33:54.755Z,-2.10
2019-01-19T23:36:22.605Z,-2.10
2019-01-19T23:38:50.501Z,-2.20
2019-01-19T23:41:18.352Z,-2.10
2019-01-19T23:43:46.245Z,-2.20
2019-01-19T23:46:14.397Z,-2.10
2019-01-19T23:48:42.274Z,-2.10
2019-01-19T23:51:10.128Z,-2.10
2019-01-19T23:53:38.052Z,-2.10
2019-01-19T23:56:05.861Z,-2.10
2019-01-19T23:58:33.712Z,-2.10
